sensor_id;sensor_type;location;lat;lon;timestamp;P1;durP1;ratioP1;P2;durP2;ratioP2
18623;SDS011;9441;51.420;7.036;2023-06-14T00:00:14;10.25;;;7.03;;
18623;SDS011;9441;51.420;7.036;2023-06-14T00:01:15;11.70;;;7.13;;
18623;SDS011;9441;51.420;7.036;2023-06-14T00:02:20;13.15;;;7.43;;
18623;SDS011;9441;51.420;7.036;2023-06-14T00:03:21;10.57;;;6.80;;
18623;SDS011;9441;51.420;7.036;2023-06-14T00:04:24;10.82;;;7.18;;
18623;SDS011;9441;51.420;7.036;2023-06-14T00:05:26;15.13;;;7.38;;
18623;SDS011;9441;51.420;7.036;2023-06-14T00:06:30;14.13;;;7.57;;
18623;SDS011;9441;51.420;7.036;2023-06-14T00:07:36;15.35;;;7.10;;
18623;SDS011;9441;51.420;7.036;2023-06-14T00:08:42;14.95;;;7.38;;
18623;SDS011;9441;51.420;7.036;2023-06-14T00:09:43;9.85;;;7.38;;
18623;SDS011;9441;51.420;7.036;2023-06-14T00:10:46;16.45;;;7.47;;
18623;SDS011;9441;51.420;7.036;2023-06-14T00:11:47;16.25;;;7.57;;
18623;SDS011;9441;51.420;7.036;2023-06-14T00:12:50;11.55;;;7.28;;
18623;SDS011;9441;51.420;7.036;2023-06-14T00:13:51;10.85;;;7.22;;
18623;SDS011;9441;51.420;7.036;2023-06-14T00:14:53;10.73;;;7.65;;
18623;SDS011;9441;51.420;7.036;2023-06-14T00:15:55;16.92;;;7.70;;
18623;SDS011;9441;51.420;7.036;2023-06-14T00:16:57;11.02;;;7.20;;
18623;SDS011;9441;51.420;7.036;2023-06-14T00:17:59;11.25;;;7.18;;
18623;SDS011;9441;51.420;7.036;2023-06-14T00:19:01;12.48;;;7.22;;
18623;SDS011;9441;51.420;7.036;2023-06-14T00:20:04;13.45;;;7.22;;
18623;SDS011;9441;51.420;7.036;2023-06-14T00:21:08;11.60;;;7.38;;
18623;SDS011;9441;51.420;7.036;2023-06-14T00:22:10;9.07;;;6.63;;
18623;SDS011;9441;51.420;7.036;2023-06-14T00:23:14;10.30;;;6.93;;
18623;SDS011;9441;51.420;7.036;2023-06-14T00:24:15;10.98;;;7.40;;
18623;SDS011;9441;51.420;7.036;2023-06-14T00:25:17;13.43;;;7.22;;
18623;SDS011;9441;51.420;7.036;2023-06-14T00:26:19;13.27;;;7.38;;
18623;SDS011;9441;51.420;7.036;2023-06-14T00:27:21;13.73;;;7.55;;
18623;SDS011;9441;51.420;7.036;2023-06-14T00:28:24;14.10;;;7.53;;
18623;SDS011;9441;51.420;7.036;2023-06-14T00:29:26;13.43;;;7.30;;
18623;SDS011;9441;51.420;7.036;2023-06-14T00:30:27;13.60;;;7.50;;
18623;SDS011;9441;51.420;7.036;2023-06-14T00:31:31;11.38;;;7.22;;
18623;SDS011;9441;51.420;7.036;2023-06-14T00:32:32;9.95;;;7.30;;
18623;SDS011;9441;51.420;7.036;2023-06-14T00:33:34;12.07;;;7.40;;
18623;SDS011;9441;51.420;7.036;2023-06-14T00:34:35;14.80;;;7.70;;
18623;SDS011;9441;51.420;7.036;2023-06-14T00:35:38;12.80;;;7.43;;
18623;SDS011;9441;51.420;7.036;2023-06-14T00:36:39;10.93;;;7.28;;
18623;SDS011;9441;51.420;7.036;2023-06-14T00:37:42;13.00;;;7.85;;
18623;SDS011;9441;51.420;7.036;2023-06-14T00:38:44;13.93;;;7.20;;
18623;SDS011;9441;51.420;7.036;2023-06-14T00:39:47;10.02;;;7.30;;
18623;SDS011;9441;51.420;7.036;2023-06-14T00:40:48;10.50;;;7.85;;
18623;SDS011;9441;51.420;7.036;2023-06-14T00:41:50;15.93;;;7.45;;
18623;SDS011;9441;51.420;7.036;2023-06-14T00:42:52;13.15;;;7.47;;
18623;SDS011;9441;51.420;7.036;2023-06-14T00:43:54;15.13;;;7.43;;
18623;SDS011;9441;51.420;7.036;2023-06-14T00:44:57;11.70;;;7.28;;
18623;SDS011;9441;51.420;7.036;2023-06-14T00:45:59;9.60;;;7.40;;
18623;SDS011;9441;51.420;7.036;2023-06-14T00:47:00;16.92;;;7.78;;
18623;SDS011;9441;51.420;7.036;2023-06-14T00:48:03;14.55;;;7.35;;
18623;SDS011;9441;51.420;7.036;2023-06-14T00:49:06;15.68;;;7.05;;
18623;SDS011;9441;51.420;7.036;2023-06-14T00:50:08;10.85;;;7.50;;
18623;SDS011;9441;51.420;7.036;2023-06-14T00:51:10;14.38;;;7.35;;
18623;SDS011;9441;51.420;7.036;2023-06-14T00:52:12;9.98;;;7.03;;
18623;SDS011;9441;51.420;7.036;2023-06-14T00:53:14;10.75;;;7.28;;
18623;SDS011;9441;51.420;7.036;2023-06-14T00:54:20;12.50;;;7.45;;
18623;SDS011;9441;51.420;7.036;2023-06-14T00:55:21;12.13;;;7.57;;
18623;SDS011;9441;51.420;7.036;2023-06-14T00:56:24;14.40;;;7.32;;
18623;SDS011;9441;51.420;7.036;2023-06-14T00:57:25;13.50;;;7.53;;
18623;SDS011;9441;51.420;7.036;2023-06-14T00:58:29;12.27;;;7.38;;
18623;SDS011;9441;51.420;7.036;2023-06-14T00:59:31;9.25;;;7.55;;
18623;SDS011;9441;51.420;7.036;2023-06-14T01:00:34;10.38;;;6.68;;
18623;SDS011;9441;51.420;7.036;2023-06-14T01:01:35;13.70;;;6.95;;
18623;SDS011;9441;51.420;7.036;2023-06-14T01:02:39;8.45;;;6.65;;
18623;SDS011;9441;51.420;7.036;2023-06-14T01:03:43;11.18;;;7.50;;
18623;SDS011;9441;51.420;7.036;2023-06-14T01:04:46;9.48;;;7.18;;
18623;SDS011;9441;51.420;7.036;2023-06-14T01:05:49;10.52;;;7.30;;
18623;SDS011;9441;51.420;7.036;2023-06-14T01:06:56;10.52;;;7.30;;
18623;SDS011;9441;51.420;7.036;2023-06-14T01:08:06;14.50;;;6.97;;
18623;SDS011;9441;51.420;7.036;2023-06-14T01:09:15;12.75;;;7.93;;
18623;SDS011;9441;51.420;7.036;2023-06-14T01:10:29;12.05;;;7.05;;
18623;SDS011;9441;51.420;7.036;2023-06-14T01:11:36;17.88;;;8.20;;
18623;SDS011;9441;51.420;7.036;2023-06-14T01:12:43;12.60;;;7.35;;
18623;SDS011;9441;51.420;7.036;2023-06-14T01:13:46;10.02;;;7.30;;
18623;SDS011;9441;51.420;7.036;2023-06-14T01:14:48;12.02;;;7.43;;
18623;SDS011;9441;51.420;7.036;2023-06-14T01:15:53;11.77;;;7.50;;
18623;SDS011;9441;51.420;7.036;2023-06-14T01:16:56;11.10;;;7.78;;
18623;SDS011;9441;51.420;7.036;2023-06-14T01:18:00;12.18;;;7.63;;
18623;SDS011;9441;51.420;7.036;2023-06-14T01:19:03;12.93;;;7.60;;
18623;SDS011;9441;51.420;7.036;2023-06-14T01:20:06;14.40;;;7.35;;
18623;SDS011;9441;51.420;7.036;2023-06-14T01:21:19;11.77;;;7.65;;
18623;SDS011;9441;51.420;7.036;2023-06-14T01:22:23;14.85;;;7.80;;
18623;SDS011;9441;51.420;7.036;2023-06-14T01:23:30;12.13;;;7.65;;
18623;SDS011;9441;51.420;7.036;2023-06-14T01:24:33;16.90;;;7.72;;
18623;SDS011;9441;51.420;7.036;2023-06-14T01:25:35;15.05;;;7.80;;
18623;SDS011;9441;51.420;7.036;2023-06-14T01:26:37;16.55;;;8.02;;
18623;SDS011;9441;51.420;7.036;2023-06-14T01:27:39;10.07;;;6.90;;
18623;SDS011;9441;51.420;7.036;2023-06-14T01:28:42;10.60;;;7.38;;
18623;SDS011;9441;51.420;7.036;2023-06-14T01:29:49;14.25;;;7.68;;
18623;SDS011;9441;51.420;7.036;2023-06-14T01:30:54;10.70;;;7.18;;
18623;SDS011;9441;51.420;7.036;2023-06-14T01:31:55;12.68;;;7.05;;
18623;SDS011;9441;51.420;7.036;2023-06-14T01:32:58;11.30;;;7.50;;
18623;SDS011;9441;51.420;7.036;2023-06-14T01:33:59;11.35;;;7.40;;
18623;SDS011;9441;51.420;7.036;2023-06-14T01:35:02;12.80;;;7.20;;
18623;SDS011;9441;51.420;7.036;2023-06-14T01:36:04;10.80;;;7.25;;
18623;SDS011;9441;51.420;7.036;2023-06-14T01:37:07;12.07;;;7.45;;
18623;SDS011;9441;51.420;7.036;2023-06-14T01:38:09;10.25;;;7.35;;
18623;SDS011;9441;51.420;7.036;2023-06-14T01:39:13;13.57;;;7.43;;
18623;SDS011;9441;51.420;7.036;2023-06-14T01:40:15;11.60;;;8.00;;
18623;SDS011;9441;51.420;7.036;2023-06-14T01:41:18;11.23;;;7.53;;
18623;SDS011;9441;51.420;7.036;2023-06-14T01:42:21;12.02;;;7.55;;
18623;SDS011;9441;51.420;7.036;2023-06-14T01:43:24;11.45;;;6.88;;
18623;SDS011;9441;51.420;7.036;2023-06-14T01:44:26;12.43;;;7.60;;
18623;SDS011;9441;51.420;7.036;2023-06-14T01:45:29;13.25;;;7.00;;
18623;SDS011;9441;51.420;7.036;2023-06-14T01:46:31;11.57;;;7.55;;
18623;SDS011;9441;51.420;7.036;2023-06-14T01:47:34;16.35;;;7.50;;
18623;SDS011;9441;51.420;7.036;2023-06-14T01:48:35;11.38;;;7.80;;
18623;SDS011;9441;51.420;7.036;2023-06-14T01:49:38;13.60;;;7.65;;
18623;SDS011;9441;51.420;7.036;2023-06-14T01:50:40;14.82;;;7.63;;
18623;SDS011;9441;51.420;7.036;2023-06-14T01:51:42;14.93;;;7.15;;
18623;SDS011;9441;51.420;7.036;2023-06-14T01:52:44;12.80;;;7.47;;
18623;SDS011;9441;51.420;7.036;2023-06-14T01:53:46;15.18;;;7.15;;
18623;SDS011;9441;51.420;7.036;2023-06-14T01:54:50;11.65;;;7.13;;
18623;SDS011;9441;51.420;7.036;2023-06-14T01:55:52;11.75;;;7.38;;
18623;SDS011;9441;51.420;7.036;2023-06-14T01:56:54;17.38;;;7.53;;
18623;SDS011;9441;51.420;7.036;2023-06-14T01:57:57;10.75;;;7.40;;
18623;SDS011;9441;51.420;7.036;2023-06-14T01:59:00;13.32;;;7.65;;
18623;SDS011;9441;51.420;7.036;2023-06-14T02:00:03;11.50;;;7.35;;
18623;SDS011;9441;51.420;7.036;2023-06-14T02:01:13;10.23;;;7.47;;
18623;SDS011;9441;51.420;7.036;2023-06-14T02:02:16;13.10;;;7.22;;
18623;SDS011;9441;51.420;7.036;2023-06-14T02:03:18;10.77;;;6.82;;
18623;SDS011;9441;51.420;7.036;2023-06-14T02:04:20;17.60;;;7.57;;
18623;SDS011;9441;51.420;7.036;2023-06-14T02:05:22;10.77;;;7.00;;
18623;SDS011;9441;51.420;7.036;2023-06-14T02:06:26;12.85;;;7.18;;
18623;SDS011;9441;51.420;7.036;2023-06-14T02:07:27;9.52;;;7.53;;
18623;SDS011;9441;51.420;7.036;2023-06-14T02:08:29;14.70;;;7.47;;
18623;SDS011;9441;51.420;7.036;2023-06-14T02:09:34;14.38;;;7.50;;
18623;SDS011;9441;51.420;7.036;2023-06-14T02:10:38;12.18;;;7.65;;
18623;SDS011;9441;51.420;7.036;2023-06-14T02:11:39;11.98;;;7.32;;
18623;SDS011;9441;51.420;7.036;2023-06-14T02:12:41;12.60;;;6.90;;
18623;SDS011;9441;51.420;7.036;2023-06-14T02:13:43;9.50;;;6.85;;
18623;SDS011;9441;51.420;7.036;2023-06-14T02:14:45;11.63;;;7.45;;
18623;SDS011;9441;51.420;7.036;2023-06-14T02:15:47;11.27;;;7.50;;
18623;SDS011;9441;51.420;7.036;2023-06-14T02:16:55;12.43;;;6.90;;
18623;SDS011;9441;51.420;7.036;2023-06-14T02:17:56;13.40;;;7.60;;
18623;SDS011;9441;51.420;7.036;2023-06-14T02:18:59;10.85;;;7.70;;
18623;SDS011;9441;51.420;7.036;2023-06-14T02:20:00;12.27;;;7.22;;
18623;SDS011;9441;51.420;7.036;2023-06-14T02:21:03;9.57;;;7.00;;
18623;SDS011;9441;51.420;7.036;2023-06-14T02:22:06;8.98;;;6.47;;
18623;SDS011;9441;51.420;7.036;2023-06-14T02:23:08;9.88;;;7.00;;
18623;SDS011;9441;51.420;7.036;2023-06-14T02:24:11;15.65;;;7.20;;
18623;SDS011;9441;51.420;7.036;2023-06-14T02:25:12;10.07;;;6.80;;
18623;SDS011;9441;51.420;7.036;2023-06-14T02:26:17;12.02;;;7.78;;
18623;SDS011;9441;51.420;7.036;2023-06-14T02:27:18;8.63;;;6.85;;
18623;SDS011;9441;51.420;7.036;2023-06-14T02:28:20;9.38;;;7.13;;
18623;SDS011;9441;51.420;7.036;2023-06-14T02:29:22;15.60;;;6.88;;
18623;SDS011;9441;51.420;7.036;2023-06-14T02:30:24;10.48;;;7.60;;
18623;SDS011;9441;51.420;7.036;2023-06-14T02:31:26;12.10;;;7.28;;
18623;SDS011;9441;51.420;7.036;2023-06-14T02:32:29;10.75;;;7.32;;
18623;SDS011;9441;51.420;7.036;2023-06-14T02:33:30;8.80;;;7.05;;
18623;SDS011;9441;51.420;7.036;2023-06-14T02:34:33;10.65;;;6.97;;
18623;SDS011;9441;51.420;7.036;2023-06-14T02:35:34;9.90;;;7.28;;
18623;SDS011;9441;51.420;7.036;2023-06-14T02:36:37;11.02;;;7.00;;
18623;SDS011;9441;51.420;7.036;2023-06-14T02:37:41;21.13;;;7.00;;
18623;SDS011;9441;51.420;7.036;2023-06-14T02:38:44;10.05;;;6.70;;
18623;SDS011;9441;51.420;7.036;2023-06-14T02:39:45;13.77;;;7.40;;
18623;SDS011;9441;51.420;7.036;2023-06-14T02:40:48;9.73;;;6.93;;
18623;SDS011;9441;51.420;7.036;2023-06-14T02:41:50;10.07;;;6.82;;
18623;SDS011;9441;51.420;7.036;2023-06-14T02:42:54;12.27;;;6.78;;
18623;SDS011;9441;51.420;7.036;2023-06-14T02:43:55;10.52;;;6.80;;
18623;SDS011;9441;51.420;7.036;2023-06-14T02:44:59;11.65;;;6.82;;
18623;SDS011;9441;51.420;7.036;2023-06-14T02:46:02;12.55;;;7.32;;
18623;SDS011;9441;51.420;7.036;2023-06-14T02:47:05;11.73;;;7.45;;
18623;SDS011;9441;51.420;7.036;2023-06-14T02:48:06;11.85;;;6.85;;
18623;SDS011;9441;51.420;7.036;2023-06-14T02:49:09;18.95;;;6.72;;
18623;SDS011;9441;51.420;7.036;2023-06-14T02:50:12;11.75;;;6.95;;
18623;SDS011;9441;51.420;7.036;2023-06-14T02:51:14;11.68;;;6.90;;
18623;SDS011;9441;51.420;7.036;2023-06-14T02:52:15;9.20;;;6.50;;
18623;SDS011;9441;51.420;7.036;2023-06-14T02:53:18;10.57;;;6.75;;
18623;SDS011;9441;51.420;7.036;2023-06-14T02:54:19;13.48;;;7.13;;
18623;SDS011;9441;51.420;7.036;2023-06-14T02:55:21;11.82;;;7.13;;
18623;SDS011;9441;51.420;7.036;2023-06-14T02:56:23;10.85;;;6.93;;
18623;SDS011;9441;51.420;7.036;2023-06-14T02:57:27;12.57;;;7.22;;
18623;SDS011;9441;51.420;7.036;2023-06-14T02:58:30;11.25;;;7.32;;
18623;SDS011;9441;51.420;7.036;2023-06-14T02:59:31;10.63;;;6.70;;
18623;SDS011;9441;51.420;7.036;2023-06-14T03:00:33;10.38;;;6.85;;
18623;SDS011;9441;51.420;7.036;2023-06-14T03:01:36;9.82;;;6.90;;
18623;SDS011;9441;51.420;7.036;2023-06-14T03:02:42;8.52;;;6.63;;
18623;SDS011;9441;51.420;7.036;2023-06-14T03:03:44;11.93;;;6.85;;
18623;SDS011;9441;51.420;7.036;2023-06-14T03:04:46;11.63;;;6.78;;
18623;SDS011;9441;51.420;7.036;2023-06-14T03:05:50;10.00;;;6.72;;
18623;SDS011;9441;51.420;7.036;2023-06-14T03:06:57;9.63;;;6.93;;
18623;SDS011;9441;51.420;7.036;2023-06-14T03:07:59;12.40;;;6.85;;
18623;SDS011;9441;51.420;7.036;2023-06-14T03:09:03;12.25;;;7.07;;
18623;SDS011;9441;51.420;7.036;2023-06-14T03:10:06;12.88;;;6.80;;
18623;SDS011;9441;51.420;7.036;2023-06-14T03:11:09;10.07;;;6.97;;
18623;SDS011;9441;51.420;7.036;2023-06-14T03:12:10;11.77;;;6.78;;
18623;SDS011;9441;51.420;7.036;2023-06-14T03:13:15;9.77;;;6.80;;
18623;SDS011;9441;51.420;7.036;2023-06-14T03:14:17;8.48;;;6.50;;
18623;SDS011;9441;51.420;7.036;2023-06-14T03:15:21;9.15;;;7.00;;
18623;SDS011;9441;51.420;7.036;2023-06-14T03:16:25;10.20;;;6.75;;
18623;SDS011;9441;51.420;7.036;2023-06-14T03:17:30;10.55;;;7.00;;
18623;SDS011;9441;51.420;7.036;2023-06-14T03:18:34;9.10;;;6.53;;
18623;SDS011;9441;51.420;7.036;2023-06-14T03:19:37;7.35;;;6.18;;
18623;SDS011;9441;51.420;7.036;2023-06-14T03:20:39;13.82;;;6.72;;
18623;SDS011;9441;51.420;7.036;2023-06-14T03:21:42;9.93;;;7.03;;
18623;SDS011;9441;51.420;7.036;2023-06-14T03:22:45;9.90;;;6.70;;
18623;SDS011;9441;51.420;7.036;2023-06-14T03:23:48;11.93;;;7.03;;
18623;SDS011;9441;51.420;7.036;2023-06-14T03:24:50;9.65;;;6.50;;
18623;SDS011;9441;51.420;7.036;2023-06-14T03:25:52;13.23;;;7.05;;
18623;SDS011;9441;51.420;7.036;2023-06-14T03:26:53;11.93;;;6.55;;
18623;SDS011;9441;51.420;7.036;2023-06-14T03:27:57;11.18;;;6.95;;
18623;SDS011;9441;51.420;7.036;2023-06-14T03:29:00;14.32;;;6.60;;
18623;SDS011;9441;51.420;7.036;2023-06-14T03:30:03;14.15;;;6.68;;
18623;SDS011;9441;51.420;7.036;2023-06-14T03:31:05;13.82;;;6.50;;
18623;SDS011;9441;51.420;7.036;2023-06-14T03:32:09;10.57;;;6.40;;
18623;SDS011;9441;51.420;7.036;2023-06-14T03:33:13;10.52;;;6.93;;
18623;SDS011;9441;51.420;7.036;2023-06-14T03:34:16;10.15;;;6.70;;
18623;SDS011;9441;51.420;7.036;2023-06-14T03:35:18;10.25;;;6.80;;
18623;SDS011;9441;51.420;7.036;2023-06-14T03:36:22;12.27;;;7.10;;
18623;SDS011;9441;51.420;7.036;2023-06-14T03:37:25;11.65;;;6.68;;
18623;SDS011;9441;51.420;7.036;2023-06-14T03:38:26;13.80;;;6.85;;
18623;SDS011;9441;51.420;7.036;2023-06-14T03:39:29;11.10;;;6.97;;
18623;SDS011;9441;51.420;7.036;2023-06-14T03:40:30;10.98;;;6.68;;
18623;SDS011;9441;51.420;7.036;2023-06-14T03:41:37;10.98;;;6.18;;
18623;SDS011;9441;51.420;7.036;2023-06-14T03:42:39;12.90;;;7.03;;
18623;SDS011;9441;51.420;7.036;2023-06-14T03:43:41;10.98;;;6.55;;
18623;SDS011;9441;51.420;7.036;2023-06-14T03:44:46;12.68;;;6.80;;
18623;SDS011;9441;51.420;7.036;2023-06-14T03:45:48;11.57;;;6.57;;
18623;SDS011;9441;51.420;7.036;2023-06-14T03:46:51;11.10;;;6.60;;
18623;SDS011;9441;51.420;7.036;2023-06-14T03:47:53;9.63;;;7.00;;
18623;SDS011;9441;51.420;7.036;2023-06-14T03:48:57;9.43;;;7.05;;
18623;SDS011;9441;51.420;7.036;2023-06-14T03:49:59;12.80;;;6.82;;
18623;SDS011;9441;51.420;7.036;2023-06-14T03:51:01;10.25;;;6.82;;
18623;SDS011;9441;51.420;7.036;2023-06-14T03:52:04;8.52;;;6.63;;
18623;SDS011;9441;51.420;7.036;2023-06-14T03:53:08;7.80;;;6.75;;
18623;SDS011;9441;51.420;7.036;2023-06-14T03:54:12;10.98;;;7.20;;
18623;SDS011;9441;51.420;7.036;2023-06-14T03:55:15;8.65;;;6.22;;
18623;SDS011;9441;51.420;7.036;2023-06-14T03:56:16;7.82;;;6.53;;
18623;SDS011;9441;51.420;7.036;2023-06-14T03:57:20;11.90;;;6.47;;
18623;SDS011;9441;51.420;7.036;2023-06-14T03:58:23;9.90;;;6.68;;
18623;SDS011;9441;51.420;7.036;2023-06-14T03:59:25;11.13;;;6.90;;
18623;SDS011;9441;51.420;7.036;2023-06-14T04:00:28;13.77;;;6.72;;
18623;SDS011;9441;51.420;7.036;2023-06-14T04:01:32;9.00;;;6.63;;
18623;SDS011;9441;51.420;7.036;2023-06-14T04:02:34;10.95;;;6.32;;
18623;SDS011;9441;51.420;7.036;2023-06-14T04:03:37;10.43;;;6.90;;
18623;SDS011;9441;51.420;7.036;2023-06-14T04:04:40;13.02;;;6.93;;
18623;SDS011;9441;51.420;7.036;2023-06-14T04:05:45;14.38;;;6.57;;
18623;SDS011;9441;51.420;7.036;2023-06-14T04:06:49;10.02;;;6.68;;
18623;SDS011;9441;51.420;7.036;2023-06-14T04:07:52;11.25;;;6.53;;
18623;SDS011;9441;51.420;7.036;2023-06-14T04:08:56;9.25;;;6.38;;
18623;SDS011;9441;51.420;7.036;2023-06-14T04:10:04;14.90;;;7.10;;
18623;SDS011;9441;51.420;7.036;2023-06-14T04:11:07;13.85;;;6.40;;
18623;SDS011;9441;51.420;7.036;2023-06-14T04:12:09;8.68;;;6.65;;
18623;SDS011;9441;51.420;7.036;2023-06-14T04:13:11;10.75;;;7.05;;
18623;SDS011;9441;51.420;7.036;2023-06-14T04:14:13;12.82;;;6.45;;
18623;SDS011;9441;51.420;7.036;2023-06-14T04:15:15;10.10;;;6.40;;
18623;SDS011;9441;51.420;7.036;2023-06-14T04:16:19;9.80;;;7.07;;
18623;SDS011;9441;51.420;7.036;2023-06-14T04:17:21;9.60;;;6.60;;
18623;SDS011;9441;51.420;7.036;2023-06-14T04:18:24;8.82;;;6.65;;
18623;SDS011;9441;51.420;7.036;2023-06-14T04:19:27;10.57;;;6.97;;
18623;SDS011;9441;51.420;7.036;2023-06-14T04:20:28;11.10;;;6.60;;
18623;SDS011;9441;51.420;7.036;2023-06-14T04:21:31;7.88;;;6.72;;
18623;SDS011;9441;51.420;7.036;2023-06-14T04:22:36;9.30;;;6.55;;
18623;SDS011;9441;51.420;7.036;2023-06-14T04:23:40;9.85;;;6.63;;
18623;SDS011;9441;51.420;7.036;2023-06-14T04:24:44;14.68;;;6.80;;
18623;SDS011;9441;51.420;7.036;2023-06-14T04:25:47;8.32;;;6.15;;
18623;SDS011;9441;51.420;7.036;2023-06-14T04:26:50;7.82;;;6.72;;
18623;SDS011;9441;51.420;7.036;2023-06-14T04:27:55;9.73;;;7.03;;
18623;SDS011;9441;51.420;7.036;2023-06-14T04:28:56;9.25;;;6.47;;
18623;SDS011;9441;51.420;7.036;2023-06-14T04:30:02;11.95;;;6.50;;
18623;SDS011;9441;51.420;7.036;2023-06-14T04:31:11;11.90;;;6.53;;
18623;SDS011;9441;51.420;7.036;2023-06-14T04:32:15;13.40;;;6.50;;
18623;SDS011;9441;51.420;7.036;2023-06-14T04:33:19;9.98;;;6.30;;
18623;SDS011;9441;51.420;7.036;2023-06-14T04:34:20;11.50;;;6.65;;
18623;SDS011;9441;51.420;7.036;2023-06-14T04:35:27;11.20;;;6.53;;
18623;SDS011;9441;51.420;7.036;2023-06-14T04:36:30;13.05;;;5.90;;
18623;SDS011;9441;51.420;7.036;2023-06-14T04:37:34;9.75;;;6.70;;
18623;SDS011;9441;51.420;7.036;2023-06-14T04:38:40;10.65;;;6.47;;
18623;SDS011;9441;51.420;7.036;2023-06-14T04:39:43;9.10;;;6.07;;
18623;SDS011;9441;51.420;7.036;2023-06-14T04:40:45;13.65;;;6.63;;
18623;SDS011;9441;51.420;7.036;2023-06-14T04:41:51;10.50;;;6.55;;
18623;SDS011;9441;51.420;7.036;2023-06-14T04:42:58;11.15;;;6.40;;
18623;SDS011;9441;51.420;7.036;2023-06-14T04:44:01;15.30;;;6.57;;
18623;SDS011;9441;51.420;7.036;2023-06-14T04:45:07;9.73;;;6.22;;
18623;SDS011;9441;51.420;7.036;2023-06-14T04:46:11;8.73;;;5.97;;
18623;SDS011;9441;51.420;7.036;2023-06-14T04:47:16;12.73;;;6.35;;
18623;SDS011;9441;51.420;7.036;2023-06-14T04:48:18;16.27;;;6.50;;
18623;SDS011;9441;51.420;7.036;2023-06-14T04:49:22;10.85;;;6.55;;
18623;SDS011;9441;51.420;7.036;2023-06-14T04:50:25;8.48;;;6.38;;
18623;SDS011;9441;51.420;7.036;2023-06-14T04:51:26;11.60;;;6.85;;
18623;SDS011;9441;51.420;7.036;2023-06-14T04:52:30;7.97;;;5.60;;
18623;SDS011;9441;51.420;7.036;2023-06-14T04:53:32;8.52;;;6.03;;
18623;SDS011;9441;51.420;7.036;2023-06-14T04:54:34;11.50;;;6.60;;
18623;SDS011;9441;51.420;7.036;2023-06-14T04:55:37;9.35;;;6.18;;
18623;SDS011;9441;51.420;7.036;2023-06-14T04:56:40;14.07;;;6.40;;
18623;SDS011;9441;51.420;7.036;2023-06-14T04:57:42;9.68;;;5.85;;
18623;SDS011;9441;51.420;7.036;2023-06-14T04:58:45;13.50;;;6.38;;
18623;SDS011;9441;51.420;7.036;2023-06-14T04:59:46;9.43;;;6.20;;
18623;SDS011;9441;51.420;7.036;2023-06-14T05:00:49;8.93;;;5.60;;
18623;SDS011;9441;51.420;7.036;2023-06-14T05:01:51;9.07;;;5.72;;
18623;SDS011;9441;51.420;7.036;2023-06-14T05:02:55;8.00;;;5.80;;
18623;SDS011;9441;51.420;7.036;2023-06-14T05:03:58;11.52;;;5.78;;
18623;SDS011;9441;51.420;7.036;2023-06-14T05:05:00;7.82;;;5.97;;
18623;SDS011;9441;51.420;7.036;2023-06-14T05:06:03;9.02;;;6.13;;
18623;SDS011;9441;51.420;7.036;2023-06-14T05:07:06;10.77;;;6.43;;
18623;SDS011;9441;51.420;7.036;2023-06-14T05:08:11;8.23;;;5.68;;
18623;SDS011;9441;51.420;7.036;2023-06-14T05:09:16;9.35;;;6.07;;
18623;SDS011;9441;51.420;7.036;2023-06-14T05:10:19;9.93;;;5.78;;
18623;SDS011;9441;51.420;7.036;2023-06-14T05:11:22;11.35;;;6.05;;
18623;SDS011;9441;51.420;7.036;2023-06-14T05:12:24;10.27;;;5.75;;
18623;SDS011;9441;51.420;7.036;2023-06-14T05:13:27;8.73;;;5.55;;
18623;SDS011;9441;51.420;7.036;2023-06-14T05:14:29;15.35;;;5.53;;
18623;SDS011;9441;51.420;7.036;2023-06-14T05:15:32;7.03;;;5.38;;
18623;SDS011;9441;51.420;7.036;2023-06-14T05:16:34;9.02;;;5.55;;
18623;SDS011;9441;51.420;7.036;2023-06-14T05:17:37;10.23;;;5.82;;
18623;SDS011;9441;51.420;7.036;2023-06-14T05:18:43;8.75;;;6.00;;
18623;SDS011;9441;51.420;7.036;2023-06-14T05:19:46;6.72;;;5.13;;
18623;SDS011;9441;51.420;7.036;2023-06-14T05:20:47;10.20;;;6.00;;
18623;SDS011;9441;51.420;7.036;2023-06-14T05:21:50;15.15;;;5.85;;
18623;SDS011;9441;51.420;7.036;2023-06-14T05:22:52;7.63;;;5.70;;
18623;SDS011;9441;51.420;7.036;2023-06-14T05:23:54;8.95;;;5.45;;
18623;SDS011;9441;51.420;7.036;2023-06-14T05:24:56;7.65;;;5.30;;
18623;SDS011;9441;51.420;7.036;2023-06-14T05:25:58;11.77;;;5.53;;
18623;SDS011;9441;51.420;7.036;2023-06-14T05:27:00;17.50;;;6.05;;
18623;SDS011;9441;51.420;7.036;2023-06-14T05:28:02;9.63;;;5.80;;
18623;SDS011;9441;51.420;7.036;2023-06-14T05:29:05;9.27;;;5.07;;
18623;SDS011;9441;51.420;7.036;2023-06-14T05:30:07;10.55;;;5.45;;
18623;SDS011;9441;51.420;7.036;2023-06-14T05:31:09;14.75;;;6.10;;
18623;SDS011;9441;51.420;7.036;2023-06-14T05:32:10;8.13;;;5.40;;
18623;SDS011;9441;51.420;7.036;2023-06-14T05:33:13;12.93;;;6.10;;
18623;SDS011;9441;51.420;7.036;2023-06-14T05:34:15;9.73;;;5.22;;
18623;SDS011;9441;51.420;7.036;2023-06-14T05:35:18;6.43;;;5.10;;
18623;SDS011;9441;51.420;7.036;2023-06-14T05:36:19;8.23;;;5.35;;
18623;SDS011;9441;51.420;7.036;2023-06-14T05:37:22;7.68;;;4.93;;
18623;SDS011;9441;51.420;7.036;2023-06-14T05:38:23;7.65;;;5.25;;
18623;SDS011;9441;51.420;7.036;2023-06-14T05:39:26;10.95;;;5.00;;
18623;SDS011;9441;51.420;7.036;2023-06-14T05:40:28;9.05;;;5.22;;
18623;SDS011;9441;51.420;7.036;2023-06-14T05:41:30;6.70;;;4.95;;
18623;SDS011;9441;51.420;7.036;2023-06-14T05:42:32;9.52;;;5.18;;
18623;SDS011;9441;51.420;7.036;2023-06-14T05:43:33;10.05;;;5.10;;
18623;SDS011;9441;51.420;7.036;2023-06-14T05:44:36;16.45;;;5.15;;
18623;SDS011;9441;51.420;7.036;2023-06-14T05:45:37;10.77;;;5.38;;
18623;SDS011;9441;51.420;7.036;2023-06-14T05:46:39;10.15;;;5.18;;
18623;SDS011;9441;51.420;7.036;2023-06-14T05:47:41;9.35;;;4.78;;
18623;SDS011;9441;51.420;7.036;2023-06-14T05:48:43;12.38;;;5.00;;
18623;SDS011;9441;51.420;7.036;2023-06-14T05:49:46;10.65;;;4.40;;
18623;SDS011;9441;51.420;7.036;2023-06-14T05:50:48;13.93;;;4.97;;
18623;SDS011;9441;51.420;7.036;2023-06-14T05:51:49;6.47;;;4.75;;
18623;SDS011;9441;51.420;7.036;2023-06-14T05:52:52;9.75;;;4.55;;
18623;SDS011;9441;51.420;7.036;2023-06-14T05:53:54;10.85;;;4.97;;
18623;SDS011;9441;51.420;7.036;2023-06-14T05:54:56;13.40;;;4.72;;
18623;SDS011;9441;51.420;7.036;2023-06-14T05:55:57;7.47;;;4.90;;
18623;SDS011;9441;51.420;7.036;2023-06-14T05:57:00;9.10;;;4.65;;
18623;SDS011;9441;51.420;7.036;2023-06-14T05:58:01;6.25;;;4.80;;
18623;SDS011;9441;51.420;7.036;2023-06-14T05:59:04;9.85;;;4.70;;
18623;SDS011;9441;51.420;7.036;2023-06-14T06:00:06;10.52;;;4.65;;
18623;SDS011;9441;51.420;7.036;2023-06-14T06:01:12;7.63;;;4.57;;
18623;SDS011;9441;51.420;7.036;2023-06-14T06:02:14;6.80;;;4.60;;
18623;SDS011;9441;51.420;7.036;2023-06-14T06:03:16;7.45;;;4.55;;
18623;SDS011;9441;51.420;7.036;2023-06-14T06:04:17;8.77;;;4.65;;
18623;SDS011;9441;51.420;7.036;2023-06-14T06:05:21;10.50;;;4.57;;
18623;SDS011;9441;51.420;7.036;2023-06-14T06:06:23;7.55;;;4.78;;
18623;SDS011;9441;51.420;7.036;2023-06-14T06:07:25;8.43;;;4.50;;
18623;SDS011;9441;51.420;7.036;2023-06-14T06:08:27;6.38;;;4.45;;
18623;SDS011;9441;51.420;7.036;2023-06-14T06:09:29;11.23;;;4.60;;
18623;SDS011;9441;51.420;7.036;2023-06-14T06:10:31;6.03;;;4.07;;
18623;SDS011;9441;51.420;7.036;2023-06-14T06:11:32;7.95;;;4.05;;
18623;SDS011;9441;51.420;7.036;2023-06-14T06:12:35;11.25;;;4.22;;
18623;SDS011;9441;51.420;7.036;2023-06-14T06:13:36;7.78;;;4.53;;
18623;SDS011;9441;51.420;7.036;2023-06-14T06:14:39;9.65;;;4.45;;
18623;SDS011;9441;51.420;7.036;2023-06-14T06:15:40;7.55;;;4.60;;
18623;SDS011;9441;51.420;7.036;2023-06-14T06:16:42;9.98;;;4.18;;
18623;SDS011;9441;51.420;7.036;2023-06-14T06:17:44;8.52;;;4.57;;
18623;SDS011;9441;51.420;7.036;2023-06-14T06:18:46;8.50;;;4.15;;
18623;SDS011;9441;51.420;7.036;2023-06-14T06:19:47;6.97;;;4.20;;
18623;SDS011;9441;51.420;7.036;2023-06-14T06:20:51;8.55;;;4.05;;